createdAt,value
2023-02-28T00:00:48.508Z,100315.72
2023-02-28T00:03:18.122Z,100317.53
2023-02-28T00:05:44.847Z,100319.75
2023-02-28T00:08:17.549Z,100319.56
2023-02-28T00:10:44.729Z,100326.25
2023-02-28T00:13:14.410Z,100324.69
2023-02-28T00:15:41.189Z,100331.09
2023-02-28T00:18:07.902Z,100326.91
2023-02-28T00:20:38.303Z,100327.47
2023-02-28T00:23:08.563Z,100332.59
2023-02-28T00:25:39.029Z,100332.72
2023-02-28T00:28:05.621Z,100339.84
2023-02-28T00:30:35.481Z,100338.59
2023-02-28T00:33:05.520Z,100332.34
2023-02-28T00:35:34.918Z,100331.38
2023-02-28T00:38:04.812Z,100335.69
2023-02-28T00:40:38.682Z,100343.03
2023-02-28T00:43:07.066Z,100338.88
2023-02-28T00:45:33.762Z,100336.81
2023-02-28T00:48:00.903Z,100335.53
2023-02-28T00:50:38.969Z,100333.47
2023-02-28T00:53:05.617Z,100325.69
2023-02-28T00:55:36.088Z,100330.69
2023-02-28T00:58:08.171Z,100342.22
2023-02-28T01:00:37.501Z,100333.06
2023-02-28T01:03:06.669Z,100331.66
2023-02-28T01:05:36.605Z,100342.88
2023-02-28T01:08:05.867Z,100338.03
2023-02-28T01:10:36.176Z,100345.41
2023-02-28T01:13:08.545Z,100347.50
2023-02-28T01:15:37.727Z,100344.84
2023-02-28T01:18:05.427Z,100349.59
2023-02-28T01:20:36.817Z,100350.41
2023-02-28T01:23:03.833Z,100355.81
2023-02-28T01:25:38.754Z,100360.41
2023-02-28T01:28:06.872Z,100353.75
2023-02-28T01:30:34.625Z,100353.03
2023-02-28T01:33:03.570Z,100356.94
2023-02-28T01:35:36.579Z,100358.19
2023-02-28T01:38:20.441Z,100348.16
2023-02-28T01:40:53.492Z,100341.25
2023-02-28T01:43:26.556Z,100343.75
2023-02-28T01:45:56.976Z,100336.25
2023-02-28T01:48:36.670Z,100345.13
2023-02-28T01:51:10.365Z,100343.59
2023-02-28T01:53:47.537Z,100342.22
2023-02-28T01:56:23.218Z,100351.38
2023-02-28T01:59:09.727Z,100344.44
2023-02-28T02:01:39.152Z,100346.38
2023-02-28T02:04:06.748Z,100342.63
2023-02-28T02:06:44.017Z,100337.38
2023-02-28T02:09:11.171Z,100339.72
2023-02-28T02:11:38.864Z,100338.34
2023-02-28T02:14:18.013Z,100343.75
2023-02-28T02:17:03.423Z,100338.47
2023-02-28T02:19:42.939Z,100336.25
2023-02-28T02:22:32.292Z,100342.34
2023-02-28T02:25:13.322Z,100340.13
2023-02-28T02:28:14.380Z,100348.88
2023-02-28T02:30:49.983Z,100340.66
2023-02-28T02:33:44.641Z,100332.19
2023-02-28T02:36:18.983Z,100336.50
2023-02-28T02:38:55.836Z,100327.06
2023-02-28T02:41:42.279Z,100330.25
2023-02-28T02:44:15.315Z,100337.41
2023-02-28T02:46:44.799Z,100339.75
2023-02-28T02:49:28.508Z,100331.81
2023-02-28T02:51:56.128Z,100329.06
2023-02-28T02:54:30.992Z,100334.19
2023-02-28T02:57:05.746Z,100335.56
2023-02-28T02:59:33.347Z,100323.97
2023-02-28T03:02:05.325Z,100327.28
2023-02-28T03:04:37.955Z,100331.59
2023-02-28T03:07:05.032Z,100330.63
2023-02-28T03:09:40.748Z,100330.63
2023-02-28T03:12:11.306Z,100330.31
2023-02-28T03:15:07.461Z,100330.28
2023-02-28T03:17:52.472Z,100329.88
2023-02-28T03:20:37.429Z,100333.06
2023-02-28T03:23:10.065Z,100333.91
2023-02-28T03:26:03.798Z,100335.66
2023-02-28T03:28:45.432Z,100334.38
2023-02-28T03:31:34.058Z,100341.84
2023-02-28T03:34:08.975Z,100347.69
2023-02-28T03:36:49.406Z,100341.72
2023-02-28T03:39:26.681Z,100339.09
2023-02-28T03:42:08.271Z,100331.19
2023-02-28T03:44:41.168Z,100341.56
2023-02-28T03:47:30.438Z,100340.06
2023-02-28T03:50:18.276Z,100335.88
2023-02-28T03:53:15.761Z,100351.25
2023-02-28T03:55:46.333Z,100344.19
2023-02-28T03:58:21.905Z,100347.28
2023-02-28T04:00:55.768Z,100347.47
2023-02-28T04:03:35.320Z,100352.84
2023-02-28T04:06:05.935Z,100351.53
2023-02-28T04:08:33.002Z,100343.88
2023-02-28T04:11:15.760Z,100341.97
2023-02-28T04:13:49.533Z,100338.91
2023-02-28T04:16:33.897Z,100342.72
2023-02-28T04:19:06.081Z,100347.47
2023-02-28T04:21:41.817Z,100351.75
2023-02-28T04:24:15.665Z,100347.28
2023-02-28T04:26:45.574Z,100348.50
2023-02-28T04:29:14.533Z,100341.06
2023-02-28T04:31:41.303Z,100343.75
2023-02-28T04:34:08.066Z,100357.09
2023-02-28T04:36:37.947Z,100340.28
2023-02-28T04:39:07.504Z,100343.59
2023-02-28T04:41:36.719Z,100346.06
2023-02-28T04:44:04.004Z,100343.25
2023-02-28T04:46:31.675Z,100344.66
2023-02-28T04:48:59.154Z,100353.50
2023-02-28T04:51:25.922Z,100348.06
2023-02-28T04:53:54.735Z,100351.53
2023-02-28T04:56:22.066Z,100352.88
2023-02-28T04:58:49.220Z,100352.88
2023-02-28T05:01:28.998Z,100351.66
2023-02-28T05:03:57.665Z,100348.19
2023-02-28T05:06:25.636Z,100345.03
2023-02-28T05:08:52.779Z,100346.41
2023-02-28T05:11:29.424Z,100348.06
2023-02-28T05:14:01.747Z,100357.44
2023-02-28T05:16:30.738Z,100347.97
2023-02-28T05:18:59.118Z,100356.50
2023-02-28T05:21:28.793Z,100352.03
2023-02-28T05:24:02.864Z,100350.22
2023-02-28T05:26:30.546Z,100350.09
2023-02-28T05:28:57.458Z,100350.38
2023-02-28T05:31:24.564Z,100366.00
2023-02-28T05:33:51.263Z,100370.41
2023-02-28T05:36:18.311Z,100369.81
2023-02-28T05:38:53.581Z,100370.47
2023-02-28T05:41:21.003Z,100371.69
2023-02-28T05:43:55.946Z,100376.63
2023-02-28T05:46:24.807Z,100376.88
2023-02-28T05:48:52.141Z,100386.88
2023-02-28T05:51:22.304Z,100380.09
2023-02-28T05:53:50.213Z,100393.94
2023-02-28T05:56:16.895Z,100388.16
2023-02-28T05:58:44.768Z,100389.50
2023-02-28T06:01:38.101Z,100390.53
2023-02-28T06:04:14.328Z,100392.78
2023-02-28T06:06:47.207Z,100391.53
2023-02-28T06:09:14.358Z,100391.47
2023-02-28T06:11:41.100Z,100403.00
2023-02-28T06:14:07.987Z,100405.13
2023-02-28T06:16:35.584Z,100403.78
2023-02-28T06:19:03.940Z,100405.06
2023-02-28T06:21:31.431Z,100404.53
2023-02-28T06:23:59.378Z,100401.78
2023-02-28T06:26:26.431Z,100413.19
2023-02-28T06:28:53.079Z,100413.22
2023-02-28T06:31:20.042Z,100411.56
2023-02-28T06:33:47.072Z,100411.03
2023-02-28T06:36:15.344Z,100407.66
2023-02-28T06:38:44.787Z,100422.25
2023-02-28T06:41:11.785Z,100419.06
2023-02-28T06:43:41.156Z,100414.88
2023-02-28T06:46:09.514Z,100419.06
2023-02-28T06:48:36.601Z,100411.59
2023-02-28T06:51:15.163Z,100420.19
2023-02-28T06:53:42.146Z,100415.09
2023-02-28T06:56:14.181Z,100425.91
2023-02-28T06:58:41.274Z,100426.47
2023-02-28T07:01:08.889Z,100422.44
2023-02-28T07:03:36.831Z,100428.03
2023-02-28T07:06:05.079Z,100426.91
2023-02-28T07:08:32.679Z,100423.72
2023-02-28T07:10:59.504Z,100419.53
2023-02-28T07:13:29.060Z,100420.06
2023-02-28T07:16:01.066Z,100430.34
2023-02-28T07:18:28.391Z,100424.59
2023-02-28T07:20:58.138Z,100425.09
2023-02-28T07:23:24.950Z,100424.72
2023-02-28T07:25:52.081Z,100427.78
2023-02-28T07:28:18.756Z,100430.41
2023-02-28T07:30:45.428Z,100438.91
2023-02-28T07:33:13.106Z,100432.72
2023-02-28T07:35:45.841Z,100430.84
2023-02-28T07:38:14.760Z,100433.09
2023-02-28T07:40:41.631Z,100431.84
2023-02-28T07:43:08.299Z,100430.91
2023-02-28T07:45:37.909Z,100428.38
2023-02-28T07:48:07.053Z,100429.84
2023-02-28T07:50:33.716Z,100435.84
2023-02-28T07:53:00.535Z,100447.38
2023-02-28T07:55:27.895Z,100442.59
2023-02-28T07:57:55.686Z,100442.13
2023-02-28T08:00:23.021Z,100434.59
2023-02-28T08:02:52.851Z,100440.41
2023-02-28T08:05:21.884Z,100440.16
2023-02-28T08:07:50.631Z,100446.56
2023-02-28T08:10:17.319Z,100454.06
2023-02-28T08:12:45.113Z,100458.31
2023-02-28T08:15:11.955Z,100453.53
2023-02-28T08:17:38.729Z,100448.25
2023-02-28T08:20:05.886Z,100454.09
2023-02-28T08:22:32.595Z,100461.56
2023-02-28T08:24:59.280Z,100449.41
2023-02-28T08:27:25.989Z,100453.34
2023-02-28T08:29:52.665Z,100456.91
2023-02-28T08:32:29.354Z,100455.91
2023-02-28T08:34:56.686Z,100450.75
2023-02-28T08:37:23.331Z,100452.56
2023-02-28T08:39:50.008Z,100450.75
2023-02-28T08:42:16.691Z,100451.44
2023-02-28T08:44:43.439Z,100452.09
2023-02-28T08:47:10.101Z,100451.59
2023-02-28T08:49:38.535Z,100452.31
2023-02-28T08:52:05.214Z,100450.53
2023-02-28T08:54:34.358Z,100454.72
2023-02-28T08:57:00.953Z,100456.91
2023-02-28T08:59:27.631Z,100456.41
2023-02-28T09:01:54.269Z,100449.63
2023-02-28T09:04:23.390Z,100454.28
2023-02-28T09:06:51.478Z,100449.31
2023-02-28T09:09:18.129Z,100453.97
2023-02-28T09:11:44.824Z,100453.88
2023-02-28T09:14:11.647Z,100451.56
2023-02-28T09:16:38.549Z,100451.59
2023-02-28T09:19:05.378Z,100448.94
2023-02-28T09:21:32.179Z,100451.78
2023-02-28T09:23:58.997Z,100449.47
2023-02-28T09:26:32.413Z,100446.47
2023-02-28T09:29:05.931Z,100444.13
2023-02-28T09:31:32.749Z,100439.78
2023-02-28T09:34:02.542Z,100444.25
2023-02-28T09:36:41.888Z,100449.09
2023-02-28T09:39:11.559Z,100447.41
2023-02-28T09:41:51.773Z,100446.41
2023-02-28T09:44:38.885Z,100442.09
2023-02-28T09:47:19.817Z,100452.56
2023-02-28T09:49:48.922Z,100443.91
2023-02-28T09:52:20.463Z,100448.91
2023-02-28T09:54:47.360Z,100450.75
2023-02-28T09:57:36.532Z,100446.75
2023-02-28T10:00:11.361Z,100446.91
2023-02-28T10:03:20.914Z,100442.41
2023-02-28T10:05:59.791Z,100446.69
2023-02-28T10:08:35.052Z,100438.50
2023-02-28T10:11:05.567Z,100447.03
2023-02-28T10:13:59.118Z,100444.31
2023-02-28T10:16:31.261Z,100449.88
2023-02-28T10:19:04.974Z,100445.81
2023-02-28T10:21:36.951Z,100434.63
2023-02-28T10:26:39.710Z,100433.28
2023-02-28T10:29:08.413Z,100430.22
2023-02-28T10:31:35.141Z,100433.25
2023-02-28T10:34:02.511Z,100426.47
2023-02-28T10:36:30.241Z,100415.97
2023-02-28T10:38:57.131Z,100415.16
2023-02-28T10:41:29.873Z,100414.16
2023-02-28T10:44:21.886Z,100414.97
2023-02-28T10:46:49.582Z,100421.41
2023-02-28T10:49:25.021Z,100404.09
2023-02-28T10:51:55.225Z,100416.22
2023-02-28T10:54:36.243Z,100411.06
2023-02-28T10:57:20.749Z,100402.34
2023-02-28T10:59:52.095Z,100401.16
2023-02-28T11:02:38.703Z,100401.16
2023-02-28T11:05:35.470Z,100400.06
2023-02-28T11:08:13.985Z,100404.94
2023-02-28T11:10:41.109Z,100386.28
2023-02-28T11:13:07.791Z,100396.28
2023-02-28T11:15:35.412Z,100398.69
2023-02-28T11:18:03.189Z,100391.38
2023-02-28T11:20:32.000Z,100391.44
2023-02-28T11:23:00.222Z,100390.91
2023-02-28T11:25:33.260Z,100375.59
2023-02-28T11:28:05.575Z,100380.22
2023-02-28T11:30:39.828Z,100385.03
2023-02-28T11:33:46.137Z,100378.25
2023-02-28T11:36:21.415Z,100379.38
2023-02-28T11:38:50.632Z,100376.16
2023-02-28T11:41:29.275Z,100377.97
2023-02-28T11:44:08.145Z,100376.91
2023-02-28T11:46:45.258Z,100371.91
2023-02-28T11:49:36.955Z,100369.69
2023-02-28T11:52:37.962Z,100365.25
2023-02-28T11:55:10.657Z,100374.59
2023-02-28T11:57:50.615Z,100360.63
2023-02-28T12:00:36.807Z,100365.50
2023-02-28T12:03:29.303Z,100358.03
2023-02-28T12:06:06.747Z,100358.66
2023-02-28T12:08:54.041Z,100351.41
2023-02-28T12:11:34.025Z,100357.09
2023-02-28T12:14:22.311Z,100352.78
2023-02-28T12:16:56.047Z,100351.78
2023-02-28T12:19:40.297Z,100353.41
2023-02-28T12:22:26.266Z,100346.97
2023-02-28T12:25:08.274Z,100348.06
2023-02-28T12:27:38.782Z,100340.84
2023-02-28T12:30:19.442Z,100343.03
2023-02-28T12:32:50.520Z,100334.94
2023-02-28T12:35:27.903Z,100334.78
2023-02-28T12:38:06.791Z,100332.81
2023-02-28T12:40:47.154Z,100323.66
2023-02-28T12:43:16.614Z,100322.09
2023-02-28T12:45:50.129Z,100326.91
2023-02-28T12:48:25.118Z,100325.41
2023-02-28T12:50:53.273Z,100323.75
2023-02-28T12:53:40.013Z,100322.34
2023-02-28T12:56:13.729Z,100320.16
2023-02-28T12:58:47.204Z,100320.72
2023-02-28T13:02:00.477Z,100311.94
2023-02-28T13:04:48.731Z,100308.66
2023-02-28T13:07:50.795Z,100310.41
2023-02-28T13:10:19.829Z,100316.91
2023-02-28T13:12:51.906Z,100312.09
2023-02-28T13:15:32.304Z,100309.97
2023-02-28T13:18:00.218Z,100299.78
2023-02-28T13:20:36.982Z,100311.09
2023-02-28T13:23:15.370Z,100300.34
2023-02-28T13:25:42.928Z,100303.41
2023-02-28T13:28:17.904Z,100293.75
2023-02-28T13:30:53.926Z,100299.06
2023-02-28T13:33:34.574Z,100296.66
2023-02-28T13:36:15.368Z,100297.84
2023-02-28T13:38:48.838Z,100295.88
2023-02-28T13:41:32.833Z,100290.59
2023-02-28T13:44:03.120Z,100287.78
2023-02-28T13:46:33.488Z,100288.84
2023-02-28T13:49:32.663Z,100294.34
2023-02-28T13:52:05.875Z,100297.81
2023-02-28T13:55:15.664Z,100290.88
2023-02-28T13:57:57.529Z,100300.69
2023-02-28T14:00:34.637Z,100295.69
2023-02-28T14:03:22.837Z,100306.25
2023-02-28T14:06:20.199Z,100302.06
2023-02-28T14:09:10.526Z,100302.72
2023-02-28T14:11:41.960Z,100293.31
2023-02-28T14:14:10.581Z,100295.22
2023-02-28T14:17:03.721Z,100283.88
2023-02-28T14:19:32.436Z,100284.09
2023-02-28T14:22:42.343Z,100279.56
2023-02-28T14:25:35.444Z,100275.25
2023-02-28T14:28:11.137Z,100279.13
2023-02-28T14:30:57.926Z,100279.44
2023-02-28T14:33:41.039Z,100271.56
2023-02-28T14:36:29.141Z,100281.63
2023-02-28T14:39:01.226Z,100291.78
2023-02-28T14:41:37.991Z,100282.59
2023-02-28T14:44:19.278Z,100282.06
2023-02-28T14:46:48.227Z,100282.56
2023-02-28T14:49:38.761Z,100265.81
2023-02-28T14:52:35.767Z,100275.66
2023-02-28T14:55:15.309Z,100278.72
2023-02-28T14:57:51.699Z,100278.59
2023-02-28T15:00:27.175Z,100280.22
2023-02-28T15:02:54.913Z,100277.63
2023-02-28T15:05:35.660Z,100270.38
2023-02-28T15:08:27.096Z,100276.44
2023-02-28T15:11:05.502Z,100278.75
2023-02-28T15:13:41.669Z,100280.03
2023-02-28T15:16:41.366Z,100287.13
2023-02-28T15:19:17.343Z,100287.59
2023-02-28T15:21:46.462Z,100283.63
2023-02-28T15:24:29.308Z,100287.28
2023-02-28T15:26:58.576Z,100283.69
2023-02-28T15:29:28.539Z,100282.56
2023-02-28T15:32:04.150Z,100286.50
2023-02-28T15:34:44.316Z,100278.28
2023-02-28T15:37:36.461Z,100288.00
2023-02-28T15:40:17.280Z,100288.25
2023-02-28T15:43:04.727Z,100286.19
2023-02-28T15:45:42.269Z,100289.72
2023-02-28T15:48:27.853Z,100285.09
2023-02-28T15:50:56.884Z,100285.19
2023-02-28T15:53:52.819Z,100287.25
2023-02-28T15:56:21.445Z,100286.13
2023-02-28T15:58:48.505Z,100290.09
2023-02-28T16:01:25.704Z,100287.53
2023-02-28T16:03:54.868Z,100295.50
2023-02-28T16:06:33.111Z,100292.63
2023-02-28T16:09:02.944Z,100295.84
2023-02-28T16:11:30.522Z,100294.19
2023-02-28T16:14:00.865Z,100298.75
2023-02-28T16:16:32.135Z,100302.16
2023-02-28T16:19:02.606Z,100303.34
2023-02-28T16:21:33.044Z,100299.53
2023-02-28T16:24:05.091Z,100302.19
2023-02-28T16:26:36.164Z,100296.41
2023-02-28T16:29:06.936Z,100301.38
2023-02-28T16:31:43.623Z,100306.88
2023-02-28T16:34:12.954Z,100296.91
2023-02-28T16:36:44.194Z,100311.31
2023-02-28T16:39:11.844Z,100301.97
2023-02-28T16:41:38.485Z,100307.97
2023-02-28T16:44:12.867Z,100317.88
2023-02-28T16:46:39.527Z,100309.06
2023-02-28T16:49:12.058Z,100312.13
2023-02-28T16:51:41.464Z,100316.41
2023-02-28T16:54:09.439Z,100325.84
2023-02-28T16:56:42.282Z,100323.31
2023-02-28T16:59:11.514Z,100326.84
2023-02-28T17:01:38.620Z,100330.75
2023-02-28T17:04:12.089Z,100331.31
2023-02-28T17:06:39.171Z,100326.44
2023-02-28T17:09:16.966Z,100338.97
2023-02-28T17:11:45.640Z,100334.94
2023-02-28T17:14:12.228Z,100344.38
2023-02-28T17:16:45.980Z,100339.31
2023-02-28T17:19:16.952Z,100344.31
2023-02-28T17:21:44.004Z,100340.84
2023-02-28T17:24:16.532Z,100343.34
2023-02-28T17:26:45.994Z,100346.28
2023-02-28T17:29:19.449Z,100350.00
2023-02-28T17:31:47.992Z,100350.97
2023-02-28T17:34:19.405Z,100347.69
2023-02-28T17:36:53.234Z,100351.22
2023-02-28T17:39:25.218Z,100350.16
2023-02-28T17:41:53.138Z,100357.63
2023-02-28T17:44:20.894Z,100352.03
2023-02-28T17:46:52.257Z,100348.91
2023-02-28T17:49:44.279Z,100358.66
2023-02-28T17:52:12.300Z,100355.88
2023-02-28T17:54:39.430Z,100354.81
2023-02-28T17:57:13.572Z,100346.69
2023-02-28T17:59:41.844Z,100351.72
2023-02-28T18:02:10.587Z,100353.19
2023-02-28T18:04:37.287Z,100348.91
2023-02-28T18:07:07.012Z,100349.63
2023-02-28T18:09:33.790Z,100347.84
2023-02-28T18:12:03.396Z,100347.72
2023-02-28T18:14:30.083Z,100348.16
2023-02-28T18:17:02.878Z,100345.94
2023-02-28T18:19:29.586Z,100345.53
2023-02-28T18:22:01.667Z,100343.19
2023-02-28T18:24:31.491Z,100348.72
2023-02-28T18:26:58.085Z,100338.59
2023-02-28T18:29:48.368Z,100345.00
2023-02-28T18:32:17.308Z,100347.75
2023-02-28T18:34:45.206Z,100344.59
2023-02-28T18:37:12.104Z,100347.63
2023-02-28T18:39:38.950Z,100342.78
2023-02-28T18:42:08.979Z,100344.28
2023-02-28T18:44:37.633Z,100352.78
2023-02-28T18:47:04.362Z,100348.06
2023-02-28T18:49:34.146Z,100347.94
2023-02-28T18:52:00.768Z,100332.94
2023-02-28T18:54:37.189Z,100345.69
2023-02-28T18:57:04.789Z,100346.13
2023-02-28T18:59:33.648Z,100352.22
2023-02-28T19:02:06.155Z,100353.56
2023-02-28T19:04:37.727Z,100362.03
2023-02-28T19:07:06.032Z,100363.41
2023-02-28T19:09:35.131Z,100358.13
2023-02-28T19:12:09.572Z,100358.28
2023-02-28T19:14:36.314Z,100371.16
2023-02-28T19:17:02.961Z,100371.44
2023-02-28T19:19:29.764Z,100368.50
2023-02-28T19:22:05.785Z,100377.72
2023-02-28T19:24:32.663Z,100386.50
2023-02-28T19:27:01.626Z,100387.69
2023-02-28T19:29:28.489Z,100367.09
2023-02-28T19:31:56.456Z,100387.38
2023-02-28T19:34:31.699Z,100384.53
2023-02-28T19:37:01.025Z,100378.66
2023-02-28T19:39:41.044Z,100382.63
2023-02-28T19:42:13.217Z,100382.50
2023-02-28T19:44:43.052Z,100380.47
2023-02-28T19:47:11.097Z,100390.84
2023-02-28T19:49:40.768Z,100388.38
2023-02-28T19:52:17.889Z,100392.41
2023-02-28T19:54:44.687Z,100385.59
2023-02-28T19:57:11.544Z,100390.16
2023-02-28T19:59:40.198Z,100385.75
2023-02-28T20:02:13.663Z,100392.09
2023-02-28T20:04:41.003Z,100387.59
2023-02-28T20:07:08.038Z,100386.63
2023-02-28T20:09:37.080Z,100397.72
2023-02-28T20:12:17.882Z,100397.28
2023-02-28T20:14:59.665Z,100391.44
2023-02-28T20:17:26.499Z,100391.13
2023-02-28T20:20:02.491Z,100387.41
2023-02-28T20:22:29.250Z,100391.84
2023-02-28T20:24:59.363Z,100390.03
2023-02-28T20:27:26.729Z,100387.78
2023-02-28T20:29:53.931Z,100388.16
2023-02-28T20:32:24.812Z,100384.59
2023-02-28T20:34:54.865Z,100387.38
2023-02-28T20:37:21.946Z,100391.66
2023-02-28T20:39:54.274Z,100386.16
2023-02-28T20:42:24.615Z,100378.81
2023-02-28T20:44:53.874Z,100381.66
2023-02-28T20:47:23.013Z,100373.91
2023-02-28T20:49:50.317Z,100385.22
2023-02-28T20:52:19.710Z,100378.53
2023-02-28T20:54:46.673Z,100390.47
2023-02-28T20:57:13.549Z,100389.91
2023-02-28T20:59:41.275Z,100375.47
2023-02-28T21:02:10.057Z,100387.75
2023-02-28T21:04:37.899Z,100390.50
2023-02-28T21:07:07.139Z,100392.66
2023-02-28T21:09:39.697Z,100379.28
2023-02-28T21:12:10.884Z,100394.59
2023-02-28T21:14:58.658Z,100382.56
2023-02-28T21:17:28.201Z,100384.94
2023-02-28T21:19:57.990Z,100368.94
2023-02-28T21:22:25.107Z,100381.47
2023-02-28T21:24:54.145Z,100382.31
2023-02-28T21:27:24.041Z,100375.53
2023-02-28T21:29:51.950Z,100384.38
2023-02-28T21:32:21.267Z,100378.63
2023-02-28T21:34:50.792Z,100381.84
2023-02-28T21:37:24.081Z,100380.31
2023-02-28T21:39:53.319Z,100374.22
2023-02-28T21:42:24.032Z,100377.47
2023-02-28T21:44:58.823Z,100368.50
2023-02-28T21:47:25.861Z,100370.41
2023-02-28T21:49:53.502Z,100371.38
2023-02-28T21:52:22.019Z,100378.53
2023-02-28T21:54:51.337Z,100381.28
2023-02-28T21:57:26.663Z,100367.09
2023-02-28T21:59:53.839Z,100374.97
2023-02-28T22:02:23.255Z,100372.47
2023-02-28T22:04:50.737Z,100371.75
2023-02-28T22:07:20.815Z,100375.47
2023-02-28T22:09:48.031Z,100377.84
2023-02-28T22:12:16.984Z,100370.59
2023-02-28T22:14:46.867Z,100368.06
2023-02-28T22:17:16.277Z,100373.44
2023-02-28T22:19:43.145Z,100377.97
2023-02-28T22:22:09.817Z,100378.81
2023-02-28T22:24:39.176Z,100378.94
2023-02-28T22:27:06.776Z,100382.16
2023-02-28T22:29:35.774Z,100374.28
2023-02-28T22:32:14.219Z,100379.66
2023-02-28T22:34:41.473Z,100384.06
2023-02-28T22:37:11.663Z,100375.59
2023-02-28T22:39:40.556Z,100375.22
2023-02-28T22:42:07.189Z,100375.47
2023-02-28T22:44:37.035Z,100373.31
2023-02-28T22:47:03.743Z,100388.34
2023-02-28T22:49:35.760Z,100377.03
2023-02-28T22:52:05.632Z,100380.34
2023-02-28T22:54:35.945Z,100377.88
2023-02-28T22:57:07.974Z,100381.31
2023-02-28T22:59:41.655Z,100376.06
2023-02-28T23:02:11.138Z,100384.66
2023-02-28T23:04:41.267Z,100377.88
2023-02-28T23:07:07.974Z,100388.59
2023-02-28T23:09:35.714Z,100377.38
2023-02-28T23:12:04.608Z,100382.50
2023-02-28T23:14:34.026Z,100379.53
2023-02-28T23:17:00.726Z,100380.22
2023-02-28T23:19:30.136Z,100374.28
2023-02-28T23:22:02.992Z,100373.31
2023-02-28T23:24:33.723Z,100369.38
2023-02-28T23:27:05.084Z,100381.19
2023-02-28T23:29:31.970Z,100375.00
2023-02-28T23:32:05.698Z,100366.88
2023-02-28T23:34:36.510Z,100372.22
2023-02-28T23:37:06.749Z,100374.25
2023-02-28T23:39:35.697Z,100368.91
2023-02-28T23:42:04.846Z,100378.31
2023-02-28T23:44:40.762Z,100366.84
2023-02-28T23:47:11.949Z,100377.34
2023-02-28T23:49:43.797Z,100378.53
2023-02-28T23:52:12.560Z,100375.91
2023-02-28T23:54:40.302Z,100373.53
2023-02-28T23:57:13.596Z,100381.28
2023-02-28T23:59:44.762Z,100378.53
